Time;durP1;ratioP1;P1;durP2;ratioP2;P2;SDS_P1;SDS_P2;PMS_P1;PMS_P2;Temp;Humidity;BMP_temperature;BMP_pressure;BME280_temperature;BME280_humidity;BME280_pressure;Samples;Min_cycle;Max_cycle;Signal;HPM_P1;HPM_P2
2023/11/29 00:00:03;;;;;;;23.80;13.80;;;;;;;-4.06;98.88;95151.71;108669;1273;24600;-74
2023/11/29 00:02:32;;;;;;;29.50;15.80;;;;;;;-4.05;98.95;95159.96;108678;1273;22524;-74
2023/11/29 00:05:00;;;;;;;22.80;14.00;;;;;;;-4.03;98.96;95165.04;108687;1273;22703;-74
2023/11/29 00:07:28;;;;;;;27.50;15.70;;;;;;;-4.03;98.86;95166.95;108642;1266;22561;-74
2023/11/29 00:09:57;;;;;;;23.30;13.50;;;;;;;-4.04;98.87;95172.14;108732;1273;25253;-74
2023/11/29 00:12:25;;;;;;;23.50;13.40;;;;;;;-4.06;98.83;95176.88;108680;1267;25223;-74
2023/11/29 00:14:53;;;;;;;29.10;16.50;;;;;;;-4.05;98.85;95181.95;108692;1273;26388;-74
2023/11/29 00:17:21;;;;;;;19.30;10.90;;;;;;;-4.08;98.89;95180.19;108667;1272;24255;-74
2023/11/29 00:19:50;;;;;;;25.00;14.50;;;;;;;-4.10;98.95;95181.16;108722;1273;22549;-74
2023/11/29 00:22:18;;;;;;;23.60;13.80;;;;;;;-4.11;99.00;95190.50;108713;1273;23048;-74
2023/11/29 00:24:46;;;;;;;29.30;16.50;;;;;;;-4.12;99.06;95201.75;108699;1273;22662;-74
2023/11/29 00:27:21;;;;;;;26.90;15.80;;;;;;;-4.13;99.21;95207.77;108683;1273;27452;-74
2023/11/29 00:29:52;;;;;;;26.60;14.50;;;;;;;-4.15;99.22;95209.23;108687;1273;23598;-74
2023/11/29 00:32:21;;;;;;;19.90;10.40;;;;;;;-4.17;99.02;95215.60;108727;1272;22629;-74
2023/11/29 00:34:51;;;;;;;29.20;15.10;;;;;;;-4.20;99.15;95219.54;108653;1269;22549;-74
2023/11/29 00:37:19;;;;;;;28.30;13.20;;;;;;;-4.22;99.29;95221.76;108685;1269;25370;-74
2023/11/29 00:39:48;;;;;;;23.00;13.90;;;;;;;-4.23;99.28;95227.35;108678;1272;25441;-74
2023/11/29 00:42:16;;;;;;;28.60;16.50;;;;;;;-4.23;99.12;95230.48;108715;1272;22537;-74
2023/11/29 00:44:44;;;;;;;28.00;15.70;;;;;;;-4.22;99.14;95239.70;108687;1272;26717;-74
2023/11/29 00:47:12;;;;;;;22.50;13.20;;;;;;;-4.22;99.08;95238.98;108655;1272;22526;-74
2023/11/29 00:49:41;;;;;;;25.10;13.40;;;;;;;-4.27;99.12;95248.52;108710;1267;25350;-74
2023/11/29 00:52:09;;;;;;;26.70;17.10;;;;;;;-4.31;99.12;95254.83;108731;1273;22528;-74
2023/11/29 00:54:37;;;;;;;24.80;13.90;;;;;;;-4.32;99.13;95256.87;108722;1273;22540;-74
2023/11/29 00:57:06;;;;;;;33.10;17.80;;;;;;;-4.37;99.12;95252.55;108689;1273;24261;-74
2023/11/29 00:59:34;;;;;;;18.90;10.60;;;;;;;-4.40;99.22;95258.55;108717;1258;22507;-74
2023/11/29 01:02:02;;;;;;;28.80;15.90;;;;;;;-4.42;99.14;95264.83;108729;1268;22782;-74
2023/11/29 01:04:31;;;;;;;28.10;14.90;;;;;;;-4.43;99.29;95273.03;108721;1273;22538;-74
2023/11/29 01:06:59;;;;;;;25.20;13.90;;;;;;;-4.44;99.16;95272.73;108687;1273;24156;-74
2023/11/29 01:09:27;;;;;;;25.00;14.30;;;;;;;-4.46;99.14;95272.88;108629;1273;23949;-74
2023/11/29 01:11:55;;;;;;;23.30;12.30;;;;;;;-4.49;99.16;95275.42;108703;1272;22479;-74
2023/11/29 01:14:24;;;;;;;24.20;13.70;;;;;;;-4.51;99.23;95281.23;108734;1273;23825;-74
2023/11/29 01:16:52;;;;;;;27.80;13.90;;;;;;;-4.53;99.11;95287.73;108635;1273;22558;-74
2023/11/29 01:19:23;;;;;;;23.10;14.20;;;;;;;-4.54;99.14;95283.23;108679;1270;22534;-74
2023/11/29 01:21:51;;;;;;;31.80;17.80;;;;;;;-4.56;99.09;95287.14;108734;1273;22528;-74
2023/11/29 01:24:19;;;;;;;25.70;15.00;;;;;;;-4.57;99.07;95293.09;108738;1273;24491;-74
2023/11/29 01:26:48;;;;;;;25.60;14.90;;;;;;;-4.59;99.03;95289.61;108652;1270;22484;-74
2023/11/29 01:29:16;;;;;;;26.00;12.70;;;;;;;-4.62;98.97;95288.53;108688;1266;24697;-74
2023/11/29 01:31:44;;;;;;;27.90;15.20;;;;;;;-4.64;98.90;95287.08;108683;1272;22644;-74
2023/11/29 01:34:12;;;;;;;22.40;12.70;;;;;;;-4.66;98.89;95287.33;108657;1267;22668;-74
2023/11/29 01:36:43;;;;;;;25.80;15.00;;;;;;;-4.68;98.75;95292.91;108656;1266;22536;-74
2023/11/29 01:39:14;;;;;;;24.70;14.30;;;;;;;-4.68;98.68;95292.65;108663;1273;22562;-74
2023/11/29 01:41:43;;;;;;;27.10;13.70;;;;;;;-4.69;98.67;95298.82;108694;1272;22540;-74
2023/11/29 01:44:11;;;;;;;29.00;16.20;;;;;;;-4.70;98.50;95301.38;108740;1273;22587;-74
2023/11/29 01:46:40;;;;;;;30.00;16.00;;;;;;;-4.71;98.44;95299.68;108673;1267;22582;-74
2023/11/29 01:49:08;;;;;;;26.60;13.60;;;;;;;-4.72;98.41;95298.02;108663;1274;22592;-74
2023/11/29 01:51:37;;;;;;;26.60;13.30;;;;;;;-4.72;98.35;95298.73;108660;1269;22496;-74
2023/11/29 01:54:06;;;;;;;29.70;12.10;;;;;;;-4.72;98.11;95303.87;108668;1272;22523;-74
2023/11/29 01:56:34;;;;;;;27.60;13.50;;;;;;;-4.72;97.98;95312.70;108670;1270;22561;-74
2023/11/29 01:59:02;;;;;;;27.60;13.00;;;;;;;-4.72;97.98;95312.59;108636;1273;22537;-74
2023/11/29 02:01:31;;;;;;;25.20;14.50;;;;;;;-4.73;97.95;95318.35;108663;1273;22488;-74
2023/11/29 02:03:59;;;;;;;29.70;15.80;;;;;;;-4.73;97.83;95322.34;108685;1274;24310;-74
2023/11/29 02:06:27;;;;;;;30.80;16.30;;;;;;;-4.74;97.78;95325.42;108678;1273;22522;-74
2023/11/29 02:08:55;;;;;;;28.90;14.30;;;;;;;-4.75;97.74;95323.27;108640;1273;22524;-73
2023/11/29 02:11:26;;;;;;;29.60;15.80;;;;;;;-4.76;97.77;95323.09;108673;1268;22492;-74
2023/11/29 02:13:54;;;;;;;29.10;12.80;;;;;;;-4.77;97.65;95319.80;108764;1273;22532;-74
2023/11/29 02:16:22;;;;;;;33.10;15.80;;;;;;;-4.79;97.55;95313.31;108670;1271;22556;-74
2023/11/29 02:18:51;;;;;;;24.00;12.50;;;;;;;-4.82;97.42;95319.50;108668;1273;22634;-74
2023/11/29 02:21:23;;;;;;;27.80;15.00;;;;;;;-4.83;97.30;95322.26;108682;1267;23468;-74
2023/11/29 02:24:00;;;;;;;26.40;14.70;;;;;;;-4.84;97.18;95319.69;108728;1273;22559;-74
2023/11/29 02:26:29;;;;;;;27.10;12.60;;;;;;;-4.85;96.90;95324.63;108668;1270;25287;-74
2023/11/29 02:28:57;;;;;;;24.40;14.60;;;;;;;-4.87;96.70;95328.46;108666;1273;22586;-74
2023/11/29 02:31:25;;;;;;;29.50;15.10;;;;;;;-4.88;96.55;95330.66;108655;1273;22562;-74
2023/11/29 02:33:53;;;;;;;33.30;16.20;;;;;;;-4.88;96.31;95331.46;108679;1273;23138;-74
2023/11/29 02:36:21;;;;;;;26.60;13.60;;;;;;;-4.88;96.10;95331.15;108687;1267;22525;-74
2023/11/29 02:38:49;;;;;;;23.90;11.50;;;;;;;-4.90;95.85;95330.02;108688;1273;22490;-74
2023/11/29 02:41:17;;;;;;;33.20;17.40;;;;;;;-4.90;95.65;95336.94;108729;1273;22543;-74
2023/11/29 02:43:47;;;;;;;29.10;14.40;;;;;;;-4.90;95.61;95344.85;108689;1273;24386;-74
2023/11/29 02:46:35;;;;;;;25.40;14.10;;;;;;;-4.91;95.49;95349.55;108656;1269;22527;-74
2023/11/29 02:49:04;;;;;;;29.30;14.60;;;;;;;-4.91;95.34;95362.87;108701;1267;22718;-74
2023/11/29 02:51:32;;;;;;;35.40;18.50;;;;;;;-4.91;95.16;95366.17;108675;1273;22535;-74
2023/11/29 02:54:00;;;;;;;25.70;13.40;;;;;;;-4.92;95.13;95370.04;108689;1267;22590;-74
2023/11/29 02:56:28;;;;;;;32.30;15.10;;;;;;;-4.91;95.00;95379.73;108695;1267;22540;-74
2023/11/29 02:58:56;;;;;;;32.50;13.00;;;;;;;-4.90;94.86;95386.47;108653;1270;25412;-74
2023/11/29 03:01:25;;;;;;;25.90;14.70;;;;;;;-4.89;94.76;95387.38;108691;1273;22627;-74
2023/11/29 03:03:53;;;;;;;28.50;13.40;;;;;;;-4.88;94.52;95388.02;108696;1267;24215;-74
2023/11/29 03:06:21;;;;;;;20.90;9.80;;;;;;;-4.90;94.37;95393.39;108673;1270;22532;-74
2023/11/29 03:08:49;;;;;;;32.80;17.10;;;;;;;-4.91;94.23;95389.70;108539;1273;192323;-74
2023/11/29 03:11:17;;;;;;;21.30;10.00;;;;;;;-4.91;93.95;95389.19;108675;1270;22515;-74
2023/11/29 03:13:45;;;;;;;19.50;7.60;;;;;;;-4.92;93.66;95383.46;108689;1273;22536;-74
2023/11/29 03:16:14;;;;;;;19.20;9.40;;;;;;;-4.92;93.23;95391.26;108659;1273;24190;-74
2023/11/29 03:18:42;;;;;;;27.70;14.00;;;;;;;-4.93;93.09;95391.06;108610;1270;22539;-74
2023/11/29 03:21:10;;;;;;;26.80;14.60;;;;;;;-4.95;93.02;95398.02;108665;1273;22789;-74
2023/11/29 03:23:38;;;;;;;27.40;14.30;;;;;;;-4.96;92.94;95398.52;108729;1273;22535;-74
2023/11/29 03:26:09;;;;;;;28.00;15.00;;;;;;;-4.96;92.98;95398.41;108728;1267;22666;-74
2023/11/29 03:28:40;;;;;;;28.80;14.20;;;;;;;-4.95;93.04;95399.23;108649;1273;22532;-74
2023/11/29 03:31:08;;;;;;;25.10;14.30;;;;;;;-4.96;92.81;95394.13;108652;1273;22532;-74
2023/11/29 03:33:36;;;;;;;33.00;15.90;;;;;;;-4.98;92.69;95395.09;108693;1267;25361;-74
2023/11/29 03:36:07;;;;;;;32.00;18.30;;;;;;;-5.02;92.62;95401.16;108690;1273;22531;-74
2023/11/29 03:38:35;;;;;;;28.70;16.10;;;;;;;-5.07;92.63;95401.54;108692;1273;24199;-74
2023/11/29 03:41:04;;;;;;;21.80;13.20;;;;;;;-5.10;92.50;95400.92;108665;1273;24313;-74
2023/11/29 03:43:32;;;;;;;31.90;16.80;;;;;;;-5.12;92.53;95403.52;108702;1273;24244;-74
2023/11/29 03:46:00;;;;;;;31.20;16.10;;;;;;;-5.14;92.57;95397.44;108704;1267;22532;-74
2023/11/29 03:48:28;;;;;;;30.60;16.10;;;;;;;-5.18;92.44;95402.39;108714;1273;23085;-74
2023/11/29 03:50:57;;;;;;;27.70;15.50;;;;;;;-5.22;92.52;95408.13;108667;1273;22529;-74
2023/11/29 03:53:25;;;;;;;30.40;16.00;;;;;;;-5.27;92.37;95412.94;108686;1273;26185;-74
2023/11/29 03:55:53;;;;;;;31.10;16.70;;;;;;;-5.32;92.43;95411.10;108743;1273;22652;-74
2023/11/29 03:58:22;;;;;;;32.80;17.80;;;;;;;-5.36;92.58;95408.38;108617;1273;25265;-74
2023/11/29 04:00:50;;;;;;;33.60;19.60;;;;;;;-5.43;92.45;95406.31;108669;1267;22486;-74
2023/11/29 04:03:18;;;;;;;31.40;18.10;;;;;;;-5.47;92.60;95410.83;108732;1267;25510;-74
2023/11/29 04:05:46;;;;;;;32.80;17.80;;;;;;;-5.48;92.59;95412.23;108728;1273;22604;-74
2023/11/29 04:08:14;;;;;;;31.80;17.90;;;;;;;-5.54;92.55;95416.59;108684;1273;22527;-74
2023/11/29 04:10:42;;;;;;;29.80;18.20;;;;;;;-5.63;92.48;95416.79;108737;1273;21782;-74
2023/11/29 04:13:11;;;;;;;28.20;14.20;;;;;;;-5.67;92.67;95421.65;108686;1270;23818;-74
2023/11/29 04:15:39;;;;;;;28.90;16.20;;;;;;;-5.71;92.51;95421.00;108697;1270;21755;-74
2023/11/29 04:18:07;;;;;;;27.30;13.50;;;;;;;-5.84;92.35;95426.80;108645;1267;25262;-74
2023/11/29 04:20:35;;;;;;;27.60;11.70;;;;;;;-5.90;92.29;95428.46;108652;1270;22553;-74
2023/11/29 04:23:06;;;;;;;23.90;12.50;;;;;;;-5.93;92.59;95424.60;108705;1273;22548;-74
2023/11/29 04:25:35;;;;;;;22.70;11.90;;;;;;;-5.96;92.62;95429.18;108649;1273;22534;-74
2023/11/29 04:28:03;;;;;;;;;;;;;;;-5.98;92.54;95436.73;108667;1269;22511;-74
2023/11/29 04:30:31;;;;;;;28.60;14.80;;;;;;;-6.05;92.33;95438.46;108679;1273;22531;-74
2023/11/29 04:32:59;;;;;;;33.00;17.90;;;;;;;-6.08;92.33;95440.97;108714;1273;22549;-74
2023/11/29 04:35:27;;;;;;;33.90;17.90;;;;;;;-6.11;92.43;95441.09;108729;1260;24340;-74
2023/11/29 04:37:56;;;;;;;34.70;19.10;;;;;;;-6.10;92.35;95447.09;108671;1267;22515;-74
2023/11/29 04:40:24;;;;;;;33.50;17.60;;;;;;;-6.13;92.38;95451.27;108679;1273;27556;-74
2023/11/29 04:42:52;;;;;;;35.50;19.90;;;;;;;-6.16;92.34;95459.54;108717;1273;24277;-74
2023/11/29 04:45:20;;;;;;;33.00;18.10;;;;;;;-6.20;92.20;95460.44;108706;1271;22547;-74
2023/11/29 04:47:48;;;;;;;38.80;19.60;;;;;;;-6.20;92.47;95459.85;108683;1251;22533;-74
2023/11/29 04:50:17;;;;;;;36.40;17.80;;;;;;;-6.19;92.65;95463.34;108667;1273;23123;-74
2023/11/29 04:52:45;;;;;;;35.80;20.40;;;;;;;-6.22;92.18;95467.42;108655;1273;24608;-74
2023/11/29 04:55:13;;;;;;;36.10;19.30;;;;;;;-6.25;92.42;95474.30;108674;1273;24235;-74
2023/11/29 04:57:41;;;;;;;40.80;21.20;;;;;;;-6.24;92.55;95476.13;108680;1269;24254;-74
2023/11/29 05:00:12;;;;;;;32.90;19.20;;;;;;;-6.21;92.81;95475.05;108732;1269;22547;-74
2023/11/29 05:02:41;;;;;;;40.80;20.80;;;;;;;-6.16;92.89;95477.27;108732;1273;22523;-74
2023/11/29 05:05:09;;;;;;;40.20;19.60;;;;;;;-6.11;92.85;95479.23;108670;1273;25364;-74
2023/11/29 05:07:37;;;;;;;38.10;19.60;;;;;;;-6.10;92.92;95481.02;108613;1273;22539;-74
2023/11/29 05:10:08;;;;;;;33.60;17.80;;;;;;;-6.09;93.10;95477.00;108685;1270;22550;-74
2023/11/29 05:12:36;;;;;;;32.90;17.60;;;;;;;-6.11;92.79;95478.13;108762;1273;22545;-74
2023/11/29 05:15:07;;;;;;;35.60;18.60;;;;;;;-6.14;92.71;95478.57;108651;1273;26432;-74
2023/11/29 05:17:35;;;;;;;34.30;16.60;;;;;;;-6.19;92.53;95477.52;108675;1273;25366;-74
2023/11/29 05:20:09;;;;;;;37.00;19.80;;;;;;;-6.20;92.85;95476.20;108697;1267;22495;-74
2023/11/29 05:22:37;;;;;;;34.10;17.40;;;;;;;-6.17;92.90;95484.61;108773;1273;22525;-74
2023/11/29 05:25:07;;;;;;;36.60;19.20;;;;;;;-6.14;92.78;95485.23;108680;1270;23535;-74
2023/11/29 05:27:35;;;;;;;38.20;18.10;;;;;;;-6.12;92.87;95489.33;108745;1273;25348;-74
2023/11/29 05:30:05;;;;;;;35.40;18.20;;;;;;;-6.12;92.80;95493.72;108723;1273;22495;-74
2023/11/29 05:32:33;;;;;;;24.60;10.60;;;;;;;-6.10;92.93;95495.02;108736;1269;22622;-74
2023/11/29 05:35:02;;;;;;;36.80;20.10;;;;;;;-6.08;93.04;95499.51;108695;1267;22528;-74
2023/11/29 05:37:30;;;;;;;41.20;22.50;;;;;;;-6.07;93.08;95502.55;108635;1267;24314;-74
2023/11/29 05:39:58;;;;;;;25.80;13.60;;;;;;;-6.05;93.10;95502.49;108705;1251;22569;-74
2023/11/29 05:42:27;;;;;;;26.00;12.90;;;;;;;-6.07;92.92;95501.84;108685;1273;23612;-74
2023/11/29 05:44:55;;;;;;;35.70;12.80;;;;;;;-6.10;92.98;95505.23;108695;1273;22538;-74
2023/11/29 05:47:23;;;;;;;29.90;13.30;;;;;;;-6.09;93.01;95501.73;108699;1267;22566;-74
2023/11/29 05:49:51;;;;;;;23.70;10.80;;;;;;;-6.07;93.14;95505.26;108664;1267;22510;-74
2023/11/29 05:52:19;;;;;;;31.40;16.10;;;;;;;-6.07;92.87;95514.50;108700;1267;24317;-74
2023/11/29 05:54:47;;;;;;;37.10;20.10;;;;;;;-6.11;92.83;95520.27;108718;1265;22480;-74
2023/11/29 05:57:16;;;;;;;35.70;17.60;;;;;;;-6.15;92.84;95526.39;108663;1272;26884;-74
2023/11/29 05:59:45;;;;;;;34.30;16.20;;;;;;;-6.19;92.70;95532.30;108655;1273;26520;-74
2023/11/29 06:02:14;;;;;;;32.20;14.20;;;;;;;-6.21;92.68;95532.14;108681;1266;22539;-74
2023/11/29 06:04:42;;;;;;;40.60;19.40;;;;;;;-6.24;92.80;95538.81;108718;1273;22547;-74
2023/11/29 06:07:11;;;;;;;38.70;18.80;;;;;;;-6.25;93.02;95541.43;108677;1268;25217;-75
2023/11/29 06:09:39;;;;;;;41.10;18.80;;;;;;;-6.27;92.77;95542.48;108751;1273;22539;-74
2023/11/29 06:12:08;;;;;;;45.10;22.70;;;;;;;-6.26;93.11;95539.61;108683;1273;22627;-74
2023/11/29 06:14:37;;;;;;;37.80;20.70;;;;;;;-6.24;93.15;95536.94;108768;1273;22535;-74
2023/11/29 06:17:08;;;;;;;32.60;15.80;;;;;;;-6.22;92.95;95536.90;108691;1266;22527;-74
2023/11/29 06:19:37;;;;;;;36.40;20.00;;;;;;;-6.20;93.10;95546.23;108688;1267;24266;-74
2023/11/29 06:22:08;;;;;;;26.60;12.20;;;;;;;-6.18;93.04;95550.66;108660;1267;24421;-74
2023/11/29 06:24:37;;;;;;;40.40;20.20;;;;;;;-6.16;93.20;95555.57;108709;1273;22531;-74
2023/11/29 06:27:06;;;;;;;32.60;17.40;;;;;;;-6.17;93.06;95558.70;108675;1273;25397;-74
2023/11/29 06:29:35;;;;;;;31.60;14.50;;;;;;;-6.16;93.05;95562.08;108687;1273;22528;-74
2023/11/29 06:32:04;;;;;;;25.50;11.40;;;;;;;-6.17;92.77;95558.66;108683;1266;22524;-74
2023/11/29 06:34:32;;;;;;;34.00;17.70;;;;;;;-6.13;93.00;95561.39;108675;1273;23819;-74
2023/11/29 06:37:00;;;;;;;33.30;18.00;;;;;;;-6.11;92.96;95569.59;108717;1273;21888;-74
2023/11/29 06:39:30;;;;;;;40.20;18.50;;;;;;;-6.11;92.92;95573.56;108603;1273;22498;-74
2023/11/29 06:42:00;;;;;;;25.40;11.30;;;;;;;-6.11;92.97;95576.58;108722;1273;25369;-74
2023/11/29 06:44:29;;;;;;;31.00;15.60;;;;;;;-6.08;93.12;95575.70;108673;1273;22528;-74
2023/11/29 06:46:58;;;;;;;33.70;17.10;;;;;;;-6.04;93.20;95578.66;108662;1269;22609;-74
2023/11/29 06:49:27;;;;;;;33.60;15.10;;;;;;;-6.00;93.27;95589.09;108687;1273;22616;-74
2023/11/29 06:51:56;;;;;;;35.30;16.20;;;;;;;-5.97;93.16;95591.70;108699;1273;25361;-74
2023/11/29 06:54:25;;;;;;;34.60;17.70;;;;;;;-5.96;93.08;95590.42;108688;1273;22514;-74
2023/11/29 06:56:53;;;;;;;33.10;17.70;;;;;;;-5.94;92.96;95592.05;108685;1273;22524;-74
2023/11/29 06:59:22;;;;;;;30.20;15.10;;;;;;;-5.91;93.07;95598.63;108679;1266;22525;-74
2023/11/29 07:01:50;;;;;;;33.80;13.90;;;;;;;-5.86;93.34;95603.73;108659;1267;22545;-74
2023/11/29 07:04:18;;;;;;;32.60;16.60;;;;;;;-5.81;93.13;95609.23;108698;1267;22541;-74
2023/11/29 07:06:46;;;;;;;31.60;15.70;;;;;;;-5.77;93.11;95616.90;108688;1268;22603;-74
2023/11/29 07:09:16;;;;;;;23.00;11.50;;;;;;;-5.78;93.09;95615.70;108667;1273;22595;-74
2023/11/29 07:11:45;;;;;;;27.70;14.10;;;;;;;-5.82;92.95;95619.16;108671;1267;22568;-74
2023/11/29 07:14:15;;;;;;;28.30;15.50;;;;;;;-5.84;92.87;95621.88;108687;1273;25297;-74
2023/11/29 07:16:44;;;;;;;30.60;17.50;;;;;;;-5.88;92.60;95620.34;108684;1269;23068;-74
2023/11/29 07:19:13;;;;;;;27.90;11.40;;;;;;;-5.94;92.49;95616.86;108626;1273;23519;-74
2023/11/29 07:21:44;;;;;;;26.50;12.60;;;;;;;-6.01;92.59;95616.45;108726;1273;22539;-74
2023/11/29 07:24:12;;;;;;;32.30;15.60;;;;;;;-6.02;92.48;95613.98;108667;1267;25322;-74
2023/11/29 07:26:40;;;;;;;35.60;17.70;;;;;;;-6.00;92.26;95617.03;108634;1262;22492;-74
2023/11/29 07:29:08;;;;;;;33.00;18.30;;;;;;;-6.04;92.47;95616.27;108633;1273;23237;-74
2023/11/29 07:31:37;;;;;;;34.20;18.10;;;;;;;-6.07;92.37;95617.69;108671;1267;22641;-74
2023/11/29 07:34:05;;;;;;;35.20;19.00;;;;;;;-6.07;92.23;95618.20;108655;1273;22521;-74
2023/11/29 07:36:33;;;;;;;38.40;20.50;;;;;;;-6.03;92.25;95621.05;108647;1270;22692;-74
2023/11/29 07:39:01;;;;;;;23.00;11.30;;;;;;;-5.73;92.86;95624.52;108671;1273;22506;-74
2023/11/29 07:41:30;;;;;;;31.90;17.50;;;;;;;-5.45;92.80;95623.75;108691;1266;23581;-74
2023/11/29 07:43:58;;;;;;;29.50;16.00;;;;;;;-5.31;92.76;95627.17;108703;1266;22506;-75
2023/11/29 07:46:26;;;;;;;27.40;14.80;;;;;;;-5.15;92.46;95630.23;108696;1249;22980;-74
2023/11/29 07:48:54;;;;;;;27.30;14.40;;;;;;;-5.04;92.40;95632.55;108697;1272;22512;-75
2023/11/29 07:51:24;;;;;;;23.90;12.20;;;;;;;-5.01;92.04;95634.40;108731;1273;22491;-75
2023/11/29 07:53:53;;;;;;;31.10;16.20;;;;;;;-5.00;92.00;95640.68;108668;1273;24373;-74
2023/11/29 07:56:21;;;;;;;32.50;15.40;;;;;;;-4.93;91.82;95642.20;108698;1273;22591;-74
2023/11/29 07:58:50;;;;;;;34.10;17.90;;;;;;;-4.87;91.90;95645.64;108699;1273;25519;-74
2023/11/29 08:01:18;;;;;;;30.60;16.70;;;;;;;-4.74;91.80;95646.25;108710;1273;22560;-74
2023/11/29 08:03:47;;;;;;;32.00;16.00;;;;;;;-4.79;91.37;95647.58;108690;1266;22518;-74
2023/11/29 08:06:17;;;;;;;27.60;16.00;;;;;;;-4.91;90.95;95646.80;108650;1273;22584;-74
2023/11/29 08:08:45;;;;;;;28.60;17.30;;;;;;;-4.98;91.06;95644.44;108700;1270;26049;-74
2023/11/29 08:11:15;;;;;;;28.10;15.60;;;;;;;-4.81;91.25;95640.89;108664;1266;22549;-74
2023/11/29 08:13:43;;;;;;;31.20;17.40;;;;;;;-4.66;91.08;95644.42;108809;1266;24214;-74
2023/11/29 08:16:12;;;;;;;19.40;9.00;;;;;;;-4.72;90.46;95646.56;108671;1269;22532;-74
2023/11/29 08:18:41;;;;;;;20.80;9.10;;;;;;;-4.94;89.84;95650.91;108685;1267;22755;-74
2023/11/29 08:21:09;;;;;;;27.90;16.10;;;;;;;-5.10;89.71;95662.13;108692;1273;22572;-74
2023/11/29 08:23:38;;;;;;;27.00;15.70;;;;;;;-5.19;89.73;95663.44;108704;1250;22996;-74
2023/11/29 08:26:07;;;;;;;26.90;13.00;;;;;;;-5.18;89.76;95660.34;108664;1273;21896;-74
2023/11/29 08:28:36;;;;;;;27.80;16.10;;;;;;;-5.23;89.76;95665.74;108697;1266;25299;-74
2023/11/29 08:31:04;;;;;;;18.60;9.40;;;;;;;-5.19;89.91;95662.04;108722;1272;21764;-74
2023/11/29 08:33:35;;;;;;;19.60;9.30;;;;;;;-5.18;89.25;95666.96;108689;1273;22602;-74
2023/11/29 08:36:04;;;;;;;23.20;11.90;;;;;;;-5.29;89.12;95677.24;108693;1273;22521;-74
2023/11/29 08:38:33;;;;;;;23.70;12.00;;;;;;;-5.30;89.22;95682.42;108734;1266;22517;-74
2023/11/29 08:41:01;;;;;;;24.20;12.70;;;;;;;-5.23;89.30;95683.48;108708;1272;22929;-74
2023/11/29 08:43:29;;;;;;;22.30;11.70;;;;;;;-5.01;89.70;95683.97;108661;1273;22564;-74
2023/11/29 08:45:57;;;;;;;22.70;11.20;;;;;;;-4.73;89.63;95679.58;108657;1269;22752;-75
2023/11/29 08:48:26;;;;;;;26.40;13.80;;;;;;;-4.56;89.48;95688.14;108656;1266;22994;-74
2023/11/29 08:50:55;;;;;;;28.80;16.40;;;;;;;-4.46;89.22;95684.52;108659;1272;22503;-74
2023/11/29 08:53:23;;;;;;;30.60;15.70;;;;;;;-4.31;89.27;95687.34;108739;1266;22722;-75
2023/11/29 08:55:51;;;;;;;25.90;14.80;;;;;;;-4.22;89.01;95689.20;108653;1273;25357;-75
2023/11/29 08:58:20;;;;;;;19.90;12.00;;;;;;;-4.16;88.92;95692.91;108621;1272;24615;-74
2023/11/29 09:00:48;;;;;;;32.40;18.10;;;;;;;-3.99;89.06;95688.70;108694;1267;22715;-74
2023/11/29 09:03:17;;;;;;;22.40;10.80;;;;;;;-3.92;88.75;95691.96;108648;1273;25464;-74
2023/11/29 09:05:44;;;;;;;;;;;;;;;-3.83;88.58;95695.59;108698;1270;22549;-75
2023/11/29 09:08:13;;;;;;;27.30;14.60;;;;;;;-3.71;88.89;95701.48;108662;1266;23914;-75
2023/11/29 09:10:41;;;;;;;29.30;16.80;;;;;;;-3.55;88.75;95703.83;108665;1273;22587;-74
2023/11/29 09:13:12;;;;;;;27.50;15.50;;;;;;;-3.34;88.99;95708.48;108707;1267;22577;-74
2023/11/29 09:15:40;;;;;;;27.60;15.60;;;;;;;-3.22;88.52;95703.19;108722;1273;22636;-74
2023/11/29 09:18:08;;;;;;;29.40;16.70;;;;;;;-3.21;88.28;95701.46;108682;1269;24285;-75
2023/11/29 09:20:40;;;;;;;26.80;15.00;;;;;;;-3.15;88.07;95691.58;108690;1266;24245;-75
2023/11/29 09:23:08;;;;;;;27.10;16.10;;;;;;;-3.16;87.77;95685.46;108763;1270;22524;-75
2023/11/29 09:25:36;;;;;;;27.30;14.80;;;;;;;-3.16;87.84;95683.39;108648;1266;22524;-75
2023/11/29 09:28:06;;;;;;;22.50;11.70;;;;;;;-3.13;87.47;95686.39;108669;1273;24136;-75
2023/11/29 09:30:34;;;;;;;24.70;12.60;;;;;;;-3.17;87.21;95689.50;108690;1272;22652;-74
2023/11/29 09:33:03;;;;;;;25.20;15.00;;;;;;;-3.17;87.05;95689.38;108690;1270;24222;-75
2023/11/29 09:35:31;;;;;;;26.10;13.00;;;;;;;-2.98;87.57;95691.34;108651;1273;22524;-74
2023/11/29 09:38:00;;;;;;;28.20;16.70;;;;;;;-2.99;86.58;95685.97;108705;1268;22524;-74
2023/11/29 09:40:28;;;;;;;26.40;16.40;;;;;;;-3.04;86.41;95680.27;108687;1264;25478;-74
2023/11/29 09:42:56;;;;;;;27.60;17.20;;;;;;;-2.91;86.66;95678.27;108714;1273;23186;-74
2023/11/29 09:45:26;;;;;;;31.40;16.20;;;;;;;-2.81;86.57;95681.39;108722;1266;22547;-74
2023/11/29 09:47:53;;;;;;;;;;;;;;;-2.74;85.89;95674.84;108672;1273;22500;-74
2023/11/29 09:50:23;;;;;;;24.40;14.30;;;;;;;-2.77;85.83;95673.20;108666;1273;22541;-75
2023/11/29 09:52:52;;;;;;;26.10;15.10;;;;;;;-2.73;85.62;95675.87;108663;1273;22545;-74
2023/11/29 09:55:20;;;;;;;25.70;15.10;;;;;;;-2.66;85.66;95672.39;108702;1272;22539;-75
2023/11/29 09:57:48;;;;;;;24.10;13.20;;;;;;;-2.62;85.51;95671.03;108695;1270;22547;-75
2023/11/29 10:00:20;;;;;;;24.50;13.70;;;;;;;-2.65;85.05;95666.69;108728;1273;22529;-75
2023/11/29 10:02:48;;;;;;;25.80;13.90;;;;;;;-2.65;84.65;95663.13;108745;1273;22536;-75
2023/11/29 10:05:17;;;;;;;18.50;10.60;;;;;;;-2.69;84.60;95664.86;108760;1266;22532;-75
2023/11/29 10:07:46;;;;;;;24.50;14.70;;;;;;;-2.64;84.61;95665.43;108650;1273;22554;-75
2023/11/29 10:10:15;;;;;;;23.40;13.70;;;;;;;-2.40;85.11;95662.94;108693;1273;22532;-75
2023/11/29 10:12:44;;;;;;;21.20;11.60;;;;;;;-2.30;84.49;95660.13;108651;1273;24213;-75
2023/11/29 10:15:12;;;;;;;21.90;11.90;;;;;;;-2.31;84.31;95658.29;108672;1273;22524;-75
2023/11/29 10:17:44;;;;;;;20.70;11.80;;;;;;;-2.21;84.11;95654.14;108653;1269;22574;-75
2023/11/29 10:20:13;;;;;;;19.80;11.10;;;;;;;-2.20;83.47;95650.68;108688;1266;25384;-75
2023/11/29 10:22:42;;;;;;;20.00;11.50;;;;;;;-2.22;82.93;95654.35;108702;1269;24215;-75
2023/11/29 10:25:19;;;;;;;19.00;11.20;;;;;;;-2.19;83.02;95656.38;108692;1267;25524;-75
2023/11/29 10:27:48;;;;;;;12.20;7.60;;;;;;;-2.06;82.96;95652.55;108733;1273;24241;-75
2023/11/29 10:30:17;;;;;;;18.40;8.90;;;;;;;-2.09;81.97;95647.02;108703;1273;22555;-75
2023/11/29 10:32:48;;;;;;;19.70;12.00;;;;;;;-2.26;80.21;95650.12;108676;1273;22522;-74
2023/11/29 10:35:21;;;;;;;18.20;9.90;;;;;;;-2.47;79.90;95649.69;108726;1273;22528;-74
2023/11/29 10:38:01;;;;;;;22.40;12.10;;;;;;;-2.54;80.07;95655.55;108618;1269;24265;-74
2023/11/29 10:40:29;;;;;;;20.80;11.10;;;;;;;-2.49;80.43;95662.09;108675;1273;22531;-74
2023/11/29 10:43:03;;;;;;;24.90;13.70;;;;;;;-2.36;80.43;95653.50;108702;1273;22568;-74
2023/11/29 10:45:35;;;;;;;17.80;10.50;;;;;;;-2.51;79.18;95654.20;108702;1273;22563;-74
2023/11/29 10:48:07;;;;;;;29.10;16.50;;;;;;;-2.57;79.37;95656.35;108679;1273;22518;-74
2023/11/29 10:50:38;;;;;;;16.60;9.30;;;;;;;-2.56;79.68;95655.89;108697;1266;22527;-74
2023/11/29 10:53:07;;;;;;;21.90;11.40;;;;;;;-2.60;78.78;95652.80;108727;1266;22530;-74
2023/11/29 10:55:38;;;;;;;26.30;15.30;;;;;;;-2.70;78.52;95653.31;108696;1270;22525;-74
2023/11/29 10:58:19;;;;;;;25.20;14.50;;;;;;;-2.63;79.02;95653.56;108665;1269;22517;-74
2023/11/29 11:00:47;;;;;;;21.80;12.50;;;;;;;-2.55;78.98;95656.79;108658;1273;22627;-74
2023/11/29 11:03:42;;;;;;;23.50;12.60;;;;;;;-2.42;79.37;95648.21;108702;1273;22487;-74
2023/11/29 11:06:36;;;;;;;18.40;8.90;;;;;;;-2.36;78.77;95649.14;108633;1273;25453;-74
2023/11/29 11:09:13;;;;;;;21.30;11.00;;;;;;;-2.42;78.18;95647.16;108654;1273;24372;-75
2023/11/29 11:11:46;;;;;;;19.50;11.80;;;;;;;-2.39;78.50;95650.93;108661;1266;22518;-74
2023/11/29 11:14:20;;;;;;;20.50;11.10;;;;;;;-2.26;78.81;95655.68;108666;1266;22552;-75
2023/11/29 11:16:57;;;;;;;22.00;13.30;;;;;;;-2.22;78.03;95657.50;108631;1273;25398;-75